KLM281 SBUL-SBGR
Flight info
| Callsign | KLM281 |
|---|---|
| Flight time | N/A |
| Altitude | 22000 |
| Route | DCT ASTOB DCT UPONA DCT OBLUG/N0442F390 UZ42 ZARES MOLLE1C |
| Aircraft | A20N/M-SDE2E3FGHIRWXY/LB1 |
Departure
| Time | 2026-04-26 22:44 |
|---|---|
| Airport | Ten. Cel. Aviador César Bombonato Airport (SBUL) |
Arrival
| Time | N/A |
|---|---|
| Airport | São Paulo/Guarulhos–Governor André Franco Montoro International Airport (SBGR) |
| Time | Latitude | Longitude | Altitude | Speed | Heading |
|---|---|---|---|---|---|
| 2026-04-26 22:35 | -18.88949 | -48.22995 | 3100 ft | 0 kts | 115° |
| 2026-04-26 22:43 | -18.88986 | -48.22992 | 3100 ft | 12 kts | 192° |
| 2026-04-26 22:43 | -18.89045 | -48.22913 | 3099 ft | 19 kts | 71° |
| 2026-04-26 22:43 | -18.88952 | -48.22853 | 3102 ft | 16 kts | 29° |
| 2026-04-26 22:44 | -18.88772 | -48.22766 | 3101 ft | 61 kts | 24° |
| 2026-04-26 22:44 | -18.88129 | -48.22489 | 3099 ft | 134 kts | 22° |
| 2026-04-26 22:44 | -18.87109 | -48.22035 | 3314 ft | 169 kts | 24° |
| 2026-04-26 22:44 | -18.86098 | -48.21485 | 4181 ft | 169 kts | 30° |
| 2026-04-26 22:45 | -18.85082 | -48.20791 | 4868 ft | 178 kts | 35° |
| 2026-04-26 22:45 | -18.83931 | -48.20158 | 5400 ft | 197 kts | 20° |
| 2026-04-26 22:45 | -18.82563 | -48.19687 | 5870 ft | 218 kts | 18° |
| 2026-04-26 22:45 | -18.81168 | -48.18892 | 6079 ft | 235 kts | 37° |
| 2026-04-26 22:46 | -18.79931 | -48.17754 | 6109 ft | 236 kts | 44° |
| 2026-04-26 22:46 | -18.78761 | -48.16539 | 6105 ft | 236 kts | 45° |
| 2026-04-26 22:46 | -18.77584 | -48.15331 | 6091 ft | 236 kts | 43° |
| 2026-04-26 22:46 | -18.76381 | -48.14147 | 6111 ft | 238 kts | 42° |
| 2026-04-26 22:47 | -18.75121 | -48.12941 | 6217 ft | 256 kts | 44° |
| 2026-04-26 22:47 | -18.74119 | -48.11283 | 6585 ft | 282 kts | 72° |
| 2026-04-26 22:47 | -18.73908 | -48.09165 | 7053 ft | 304 kts | 97° |
| 2026-04-26 22:47 | -18.74448 | -48.06930 | 7492 ft | 326 kts | 110° |
| 2026-04-26 22:48 | -18.75387 | -48.04666 | 7872 ft | 349 kts | 117° |
| 2026-04-26 22:48 | -18.76700 | -48.02420 | 8174 ft | 371 kts | 127° |
| 2026-04-26 22:48 | -18.78493 | -48.00384 | 8530 ft | 387 kts | 140° |
| 2026-04-26 22:48 | -18.80766 | -47.98823 | 9291 ft | 391 kts | 154° |
| 2026-04-26 22:49 | -18.83352 | -47.97921 | 10085 ft | 395 kts | 169° |
| 2026-04-26 22:49 | -18.86102 | -47.97783 | 10772 ft | 400 kts | 185° |
| 2026-04-26 22:49 | -18.88825 | -47.98461 | 11422 ft | 405 kts | 201° |
| 2026-04-26 22:49 | -18.91427 | -47.99645 | 12068 ft | 410 kts | 204° |
| 2026-04-26 22:50 | -18.94044 | -48.00873 | 12712 ft | 415 kts | 204° |
| 2026-04-26 22:50 | -18.96700 | -48.02120 | 13311 ft | 420 kts | 204° |
| 2026-04-26 22:50 | -18.99351 | -48.03359 | 13896 ft | 424 kts | 204° |
| 2026-04-26 22:50 | -19.02103 | -48.04637 | 14434 ft | 428 kts | 204° |
| 2026-04-26 22:51 | -19.04840 | -48.05904 | 14957 ft | 432 kts | 204° |
| 2026-04-26 22:51 | -19.07570 | -48.07168 | 15459 ft | 436 kts | 204° |
| 2026-04-26 22:51 | -19.10397 | -48.08475 | 15975 ft | 440 kts | 204° |
| 2026-04-26 22:51 | -19.13175 | -48.09761 | 16472 ft | 444 kts | 204° |
| 2026-04-26 22:52 | -19.16014 | -48.11076 | 16941 ft | 447 kts | 204° |
| 2026-04-26 22:52 | -19.18874 | -48.12402 | 17401 ft | 451 kts | 205° |
| 2026-04-26 22:52 | -19.21766 | -48.13743 | 17852 ft | 455 kts | 205° |
| 2026-04-26 22:52 | -19.24678 | -48.15095 | 18309 ft | 459 kts | 205° |
| 2026-04-26 22:53 | -19.27606 | -48.16454 | 18709 ft | 461 kts | 205° |
| 2026-04-26 22:53 | -19.30557 | -48.17824 | 19152 ft | 463 kts | 205° |
| 2026-04-26 22:53 | -19.33509 | -48.19195 | 19569 ft | 466 kts | 205° |
| 2026-04-26 22:53 | -19.36486 | -48.20578 | 19981 ft | 468 kts | 205° |
| 2026-04-26 22:54 | -19.38506 | -48.21517 | 20269 ft | 469 kts | 205° |
| 2026-04-26 22:54 | -19.41461 | -48.22892 | 20664 ft | 472 kts | 205° |
| 2026-04-26 22:54 | -19.44472 | -48.24294 | 21068 ft | 474 kts | 205° |
| 2026-04-26 22:54 | -19.47494 | -48.25701 | 21462 ft | 476 kts | 205° |
| 2026-04-26 22:55 | -19.50542 | -48.27121 | 21817 ft | 479 kts | 205° |
| 2026-04-26 22:55 | -19.53597 | -48.28545 | 21961 ft | 480 kts | 205° |
| 2026-04-26 22:55 | -19.56653 | -48.29970 | 21975 ft | 480 kts | 205° |
| 2026-04-26 22:55 | -19.59707 | -48.31394 | 21975 ft | 480 kts | 205° |
| 2026-04-26 22:56 | -19.62767 | -48.32822 | 21975 ft | 480 kts | 205° |
| 2026-04-26 22:56 | -19.65820 | -48.34246 | 21969 ft | 480 kts | 205° |
| 2026-04-26 22:56 | -19.68704 | -48.35594 | 21969 ft | 480 kts | 205° |
| 2026-04-26 22:56 | -19.71776 | -48.37029 | 21969 ft | 480 kts | 205° |
| 2026-04-26 22:57 | -19.74837 | -48.38460 | 21964 ft | 480 kts | 205° |
| 2026-04-26 22:57 | -19.77893 | -48.39890 | 21964 ft | 480 kts | 205° |
| 2026-04-26 22:57 | -19.80949 | -48.41319 | 21966 ft | 480 kts | 205° |
| 2026-04-26 22:57 | -19.84007 | -48.42751 | 21966 ft | 480 kts | 205° |
| 2026-04-26 22:58 | -19.87063 | -48.44182 | 21958 ft | 480 kts | 205° |
| 2026-04-26 22:58 | -19.90103 | -48.45606 | 21961 ft | 480 kts | 205° |
| 2026-04-26 22:58 | -19.93171 | -48.47044 | 21954 ft | 480 kts | 205° |
| 2026-04-26 22:58 | -19.96227 | -48.48477 | 21951 ft | 480 kts | 205° |
| 2026-04-26 22:59 | -19.99287 | -48.49912 | 21950 ft | 480 kts | 206° |
| 2026-04-26 22:59 | -20.02340 | -48.51345 | 21948 ft | 480 kts | 206° |
| 2026-04-26 22:59 | -20.05399 | -48.52781 | 21949 ft | 480 kts | 206° |
| 2026-04-26 22:59 | -20.08445 | -48.54212 | 21947 ft | 480 kts | 206° |
| 2026-04-26 23:00 | -20.11440 | -48.55619 | 21946 ft | 480 kts | 206° |
| 2026-04-26 23:00 | -20.14564 | -48.57087 | 21950 ft | 480 kts | 206° |
| 2026-04-26 23:00 | -20.17621 | -48.58525 | 21947 ft | 480 kts | 206° |
| 2026-04-26 23:00 | -20.20680 | -48.59965 | 21950 ft | 480 kts | 206° |
| 2026-04-26 23:01 | -20.23726 | -48.61398 | 21946 ft | 480 kts | 206° |
| 2026-04-26 23:01 | -20.26791 | -48.62841 | 21946 ft | 480 kts | 206° |
| 2026-04-26 23:01 | -20.29840 | -48.64278 | 21946 ft | 480 kts | 206° |
| 2026-04-26 23:01 | -20.32897 | -48.65718 | 21949 ft | 480 kts | 206° |
| 2026-04-26 23:02 | -20.35954 | -48.67160 | 21951 ft | 480 kts | 206° |
| 2026-04-26 23:02 | -20.39005 | -48.68599 | 21949 ft | 480 kts | 206° |
| 2026-04-26 23:02 | -20.42057 | -48.70040 | 21953 ft | 480 kts | 206° |
| 2026-04-26 23:02 | -20.45115 | -48.71483 | 21949 ft | 480 kts | 206° |
| 2026-04-26 23:03 | -20.48129 | -48.72907 | 21950 ft | 480 kts | 206° |
| 2026-04-26 23:03 | -20.51218 | -48.74366 | 21950 ft | 480 kts | 206° |
| 2026-04-26 23:03 | -20.54273 | -48.75810 | 21954 ft | 480 kts | 206° |
| 2026-04-26 23:03 | -20.57283 | -48.77235 | 21954 ft | 480 kts | 206° |
| 2026-04-26 23:04 | -20.60338 | -48.78680 | 21952 ft | 480 kts | 206° |
| 2026-04-26 23:04 | -20.63391 | -48.80125 | 21951 ft | 480 kts | 206° |
| 2026-04-26 23:04 | -20.66483 | -48.81478 | 21947 ft | 482 kts | 201° |
| 2026-04-26 23:04 | -20.69586 | -48.82446 | 21949 ft | 484 kts | 195° |
| 2026-04-26 23:05 | -20.72903 | -48.83089 | 21950 ft | 486 kts | 191° |
| 2026-04-26 23:05 | -20.76260 | -48.83611 | 21949 ft | 486 kts | 191° |
| 2026-04-26 23:05 | -20.79603 | -48.84144 | 21949 ft | 486 kts | 191° |
| 2026-04-26 23:05 | -20.82950 | -48.84680 | 21949 ft | 486 kts | 191° |
| 2026-04-26 23:06 | -20.86293 | -48.85215 | 21950 ft | 486 kts | 191° |
| 2026-04-26 23:06 | -20.89635 | -48.85750 | 21948 ft | 486 kts | 191° |
| 2026-04-26 23:06 | -20.92978 | -48.86283 | 21951 ft | 486 kts | 191° |
| 2026-04-26 23:06 | -20.96336 | -48.86819 | 21949 ft | 486 kts | 191° |
| 2026-04-26 23:07 | -20.99678 | -48.87352 | 21950 ft | 486 kts | 191° |
| 2026-04-26 23:07 | -21.03031 | -48.87887 | 21950 ft | 487 kts | 191° |
| 2026-04-26 23:07 | -21.06376 | -48.88420 | 21949 ft | 487 kts | 191° |
| 2026-04-26 23:07 | -21.09726 | -48.88955 | 21947 ft | 487 kts | 191° |
| 2026-04-26 23:08 | -21.13079 | -48.89490 | 21949 ft | 487 kts | 191° |
| 2026-04-26 23:08 | -21.16427 | -48.90009 | 21943 ft | 487 kts | 189° |
| 2026-04-26 23:08 | -21.19774 | -48.90178 | 21944 ft | 491 kts | 181° |
| 2026-04-26 23:08 | -21.23191 | -48.89857 | 21946 ft | 494 kts | 173° |
| 2026-04-26 23:09 | -21.26545 | -48.89051 | 21945 ft | 497 kts | 166° |
| 2026-04-26 23:09 | -21.29855 | -48.87988 | 21944 ft | 497 kts | 166° |
| 2026-04-26 23:09 | -21.33176 | -48.86932 | 21942 ft | 497 kts | 166° |
| 2026-04-26 23:09 | -21.36490 | -48.85882 | 21939 ft | 497 kts | 166° |
| 2026-04-26 23:10 | -21.39808 | -48.84830 | 21938 ft | 497 kts | 166° |
| 2026-04-26 23:10 | -21.43127 | -48.83776 | 21939 ft | 497 kts | 166° |
| 2026-04-26 23:10 | -21.46443 | -48.82722 | 21941 ft | 497 kts | 166° |
| 2026-04-26 23:10 | -21.49748 | -48.81669 | 21939 ft | 497 kts | 166° |
| 2026-04-26 23:11 | -21.53077 | -48.80609 | 21939 ft | 497 kts | 166° |
| 2026-04-26 23:11 | -21.56393 | -48.79552 | 21937 ft | 497 kts | 166° |
| 2026-04-26 23:11 | -21.59711 | -48.78494 | 21939 ft | 498 kts | 166° |
| 2026-04-26 23:11 | -21.63031 | -48.77435 | 21927 ft | 497 kts | 166° |
| 2026-04-26 23:12 | -21.66347 | -48.76377 | 21939 ft | 498 kts | 166° |
| 2026-04-26 23:12 | -21.69667 | -48.75316 | 21931 ft | 498 kts | 166° |
| 2026-04-26 23:12 | -21.72983 | -48.74257 | 21924 ft | 498 kts | 166° |
| 2026-04-26 23:12 | -21.76302 | -48.73196 | 21931 ft | 498 kts | 166° |
| 2026-04-26 23:13 | -21.79625 | -48.72133 | 21942 ft | 498 kts | 166° |
| 2026-04-26 23:13 | -21.82947 | -48.71070 | 21943 ft | 498 kts | 166° |
| 2026-04-26 23:13 | -21.86254 | -48.70012 | 21934 ft | 498 kts | 166° |
| 2026-04-26 23:13 | -21.89596 | -48.68941 | 21931 ft | 498 kts | 166° |
| 2026-04-26 23:14 | -21.92916 | -48.67877 | 21935 ft | 498 kts | 166° |
| 2026-04-26 23:14 | -21.96245 | -48.66810 | 21930 ft | 498 kts | 166° |
| 2026-04-26 23:14 | -21.99567 | -48.65744 | 21933 ft | 498 kts | 166° |
| 2026-04-26 23:14 | -22.02893 | -48.64677 | 21931 ft | 499 kts | 166° |
| 2026-04-26 23:15 | -22.06029 | -48.63670 | 21935 ft | 499 kts | 166° |
| 2026-04-26 23:15 | -22.09361 | -48.62600 | 21933 ft | 499 kts | 166° |
| 2026-04-26 23:15 | -22.12684 | -48.61532 | 21931 ft | 499 kts | 166° |
| 2026-04-26 23:15 | -22.16015 | -48.60461 | 21936 ft | 499 kts | 166° |
| 2026-04-26 23:16 | -22.19349 | -48.59388 | 21937 ft | 499 kts | 166° |
| 2026-04-26 23:16 | -22.22671 | -48.58319 | 21943 ft | 499 kts | 166° |
| 2026-04-26 23:16 | -22.25958 | -48.57261 | 21940 ft | 499 kts | 166° |
| 2026-04-26 23:16 | -22.29281 | -48.56191 | 21942 ft | 499 kts | 166° |
| 2026-04-26 23:17 | -22.32596 | -48.55122 | 21942 ft | 499 kts | 166° |
| 2026-04-26 23:17 | -22.35939 | -48.54044 | 21933 ft | 499 kts | 166° |
| 2026-04-26 23:17 | -22.39263 | -48.52971 | 21945 ft | 499 kts | 166° |
| 2026-04-26 23:17 | -22.42596 | -48.51895 | 21945 ft | 499 kts | 166° |
| 2026-04-26 23:18 | -22.45920 | -48.50822 | 21940 ft | 499 kts | 167° |
| 2026-04-26 23:18 | -22.49248 | -48.49746 | 21941 ft | 498 kts | 167° |
| 2026-04-26 23:18 | -22.52565 | -48.48673 | 21944 ft | 499 kts | 166° |
| 2026-04-26 23:18 | -22.55807 | -48.47278 | 21944 ft | 504 kts | 155° |
| 2026-04-26 23:19 | -22.58766 | -48.45223 | 21944 ft | 509 kts | 144° |
| 2026-04-26 23:19 | -22.61335 | -48.42573 | 21950 ft | 512 kts | 132° |
| 2026-04-26 23:19 | -22.63402 | -48.39435 | 21944 ft | 514 kts | 121° |
| 2026-04-26 23:19 | -22.64894 | -48.35917 | 21949 ft | 515 kts | 109° |
| 2026-04-26 23:20 | -22.65910 | -48.32216 | 21945 ft | 515 kts | 104° |
| 2026-04-26 23:20 | -22.66845 | -48.28455 | 21949 ft | 515 kts | 105° |
| 2026-04-26 23:20 | -22.67840 | -48.24735 | 21946 ft | 514 kts | 107° |
| 2026-04-26 23:20 | -22.68907 | -48.21054 | 21706 ft | 510 kts | 108° |
| 2026-04-26 23:21 | -22.70014 | -48.17425 | 21129 ft | 505 kts | 109° |
| 2026-04-26 23:21 | -22.71133 | -48.13856 | 20444 ft | 498 kts | 109° |
| 2026-04-26 23:21 | -22.72250 | -48.10323 | 19723 ft | 491 kts | 109° |
| 2026-04-26 23:21 | -22.73349 | -48.06848 | 18987 ft | 485 kts | 109° |
| 2026-04-26 23:22 | -22.74421 | -48.03422 | 18275 ft | 478 kts | 109° |
| 2026-04-26 23:22 | -22.75406 | -48.00010 | 17503 ft | 470 kts | 107° |
| 2026-04-26 23:22 | -22.76368 | -47.96655 | 16710 ft | 463 kts | 110° |
| 2026-04-26 23:22 | -22.77611 | -47.93465 | 15932 ft | 456 kts | 117° |
| 2026-04-26 23:23 | -22.79070 | -47.90442 | 15171 ft | 450 kts | 118° |
| 2026-04-26 23:23 | -22.80510 | -47.87460 | 14431 ft | 443 kts | 118° |
| 2026-04-26 23:23 | -22.81928 | -47.84518 | 13677 ft | 438 kts | 118° |
| 2026-04-26 23:23 | -22.83330 | -47.81607 | 12870 ft | 432 kts | 118° |
| 2026-04-26 23:24 | -22.84711 | -47.78742 | 12075 ft | 427 kts | 118° |
| 2026-04-26 23:24 | -22.86076 | -47.75910 | 11302 ft | 421 kts | 118° |
| 2026-04-26 23:24 | -22.87425 | -47.73108 | 10558 ft | 417 kts | 118° |
| 2026-04-26 23:24 | -22.88758 | -47.70338 | 9839 ft | 412 kts | 118° |
| 2026-04-26 23:25 | -22.90057 | -47.67635 | 9098 ft | 407 kts | 118° |
| 2026-04-26 23:25 | -22.91381 | -47.64885 | 8326 ft | 404 kts | 117° |
| 2026-04-26 23:25 | -22.92655 | -47.62242 | 7617 ft | 399 kts | 118° |
| 2026-04-26 23:25 | -22.93952 | -47.59552 | 6875 ft | 395 kts | 117° |
| 2026-04-26 23:26 | -22.95217 | -47.56928 | 6213 ft | 391 kts | 117° |
| 2026-04-26 23:26 | -22.96453 | -47.54359 | 5970 ft | 382 kts | 117° |
| 2026-04-26 23:26 | -22.97709 | -47.51744 | 5940 ft | 392 kts | 117° |
| 2026-04-26 23:26 | -22.98963 | -47.49130 | 5955 ft | 391 kts | 117° |
| 2026-04-26 23:27 | -23.00220 | -47.46507 | 5970 ft | 391 kts | 117° |
| 2026-04-26 23:27 | -23.01458 | -47.43924 | 5971 ft | 392 kts | 117° |
| 2026-04-26 23:27 | -23.02713 | -47.41301 | 5973 ft | 392 kts | 117° |
| 2026-04-26 23:27 | -23.03562 | -47.39525 | 5974 ft | 390 kts | 117° |
| 2026-04-26 23:28 | -23.05226 | -47.36050 | 5986 ft | 391 kts | 117° |
| 2026-04-26 23:28 | -23.06472 | -47.33436 | 5990 ft | 391 kts | 117° |
| 2026-04-26 23:28 | -23.07723 | -47.30815 | 5994 ft | 391 kts | 117° |
| 2026-04-26 23:28 | -23.08977 | -47.28190 | 6003 ft | 390 kts | 117° |
| 2026-04-26 23:29 | -23.10223 | -47.25574 | 6004 ft | 390 kts | 117° |
| 2026-04-26 23:29 | -23.11475 | -47.22950 | 6008 ft | 392 kts | 117° |
| 2026-04-26 23:29 | -23.12684 | -47.20307 | 6009 ft | 390 kts | 111° |
| 2026-04-26 23:29 | -23.13297 | -47.17453 | 6008 ft | 389 kts | 93° |
| 2026-04-26 23:30 | -23.13080 | -47.14534 | 6019 ft | 388 kts | 75° |
| 2026-04-26 23:30 | -23.12063 | -47.11851 | 6015 ft | 384 kts | 57° |
| 2026-04-26 23:30 | -23.10345 | -47.09665 | 6013 ft | 379 kts | 38° |
| 2026-04-26 23:30 | -23.08265 | -47.07955 | 6008 ft | 371 kts | 34° |
| 2026-04-26 23:31 | -23.06260 | -47.06311 | 6024 ft | 350 kts | 37° |
| 2026-04-26 23:31 | -23.04464 | -47.04636 | 6015 ft | 331 kts | 40° |
| 2026-04-26 23:31 | -23.02855 | -47.02950 | 6018 ft | 313 kts | 43° |
| 2026-04-26 23:31 | -23.01384 | -47.01295 | 6017 ft | 297 kts | 44° |
| 2026-04-26 23:32 | -23.00012 | -46.99700 | 6011 ft | 281 kts | 44° |
| 2026-04-26 23:32 | -22.98690 | -46.98149 | 6012 ft | 282 kts | 45° |
| 2026-04-26 23:32 | -22.97376 | -46.96604 | 6008 ft | 283 kts | 45° |
| 2026-04-26 23:32 | -22.96032 | -46.95023 | 6018 ft | 282 kts | 45° |
| 2026-04-26 23:33 | -22.94712 | -46.93470 | 6005 ft | 281 kts | 45° |
| 2026-04-26 23:33 | -22.93401 | -46.91933 | 6006 ft | 281 kts | 45° |
| 2026-04-26 23:33 | -22.92069 | -46.90369 | 5996 ft | 283 kts | 45° |
| 2026-04-26 23:33 | -22.90741 | -46.88805 | 6001 ft | 283 kts | 45° |
| 2026-04-26 23:34 | -22.89433 | -46.87209 | 5986 ft | 283 kts | 53° |
| 2026-04-26 23:34 | -22.88669 | -46.85250 | 5989 ft | 288 kts | 79° |
| 2026-04-26 23:34 | -22.88764 | -46.83076 | 6003 ft | 292 kts | 106° |
| 2026-04-26 23:34 | -22.89718 | -46.81156 | 5986 ft | 291 kts | 133° |
| 2026-04-26 23:35 | -22.91256 | -46.79735 | 5989 ft | 291 kts | 146° |
| 2026-04-26 23:35 | -22.92933 | -46.78528 | 5975 ft | 291 kts | 148° |
| 2026-04-26 23:35 | -22.94626 | -46.77304 | 5980 ft | 290 kts | 147° |
| 2026-04-26 23:35 | -22.95263 | -46.76820 | 6001 ft | 291 kts | 146° |
| 2026-04-26 23:36 | -22.96906 | -46.75513 | 5994 ft | 292 kts | 144° |
| 2026-04-26 23:36 | -22.98514 | -46.74175 | 5989 ft | 291 kts | 143° |
| 2026-04-26 23:36 | -23.00109 | -46.72818 | 5989 ft | 292 kts | 142° |
| 2026-04-26 23:36 | -23.01698 | -46.71452 | 6000 ft | 292 kts | 143° |
| 2026-04-26 23:37 | -23.03290 | -46.70084 | 5988 ft | 291 kts | 142° |
| 2026-04-26 23:37 | -23.04884 | -46.68710 | 5985 ft | 292 kts | 143° |
| 2026-04-26 23:37 | -23.06477 | -46.67340 | 5991 ft | 295 kts | 143° |
| 2026-04-26 23:37 | -23.08086 | -46.65953 | 5989 ft | 294 kts | 142° |
| 2026-04-26 23:38 | -23.09682 | -46.64583 | 5991 ft | 292 kts | 143° |
| 2026-04-26 23:38 | -23.11280 | -46.63212 | 5989 ft | 292 kts | 143° |
| 2026-04-26 23:38 | -23.12876 | -46.61842 | 6002 ft | 295 kts | 143° |
| 2026-04-26 23:38 | -23.14489 | -46.60456 | 5995 ft | 294 kts | 143° |
| 2026-04-26 23:39 | -23.16085 | -46.59084 | 6006 ft | 292 kts | 142° |
| 2026-04-26 23:39 | -23.17669 | -46.57721 | 6012 ft | 292 kts | 143° |
| 2026-04-26 23:39 | -23.19276 | -46.56345 | 6008 ft | 293 kts | 142° |
| 2026-04-26 23:39 | -23.20780 | -46.54850 | 6017 ft | 292 kts | 131° |
| 2026-04-26 23:40 | -23.21968 | -46.53047 | 6021 ft | 295 kts | 121° |
| 2026-04-26 23:40 | -23.23027 | -46.51139 | 6019 ft | 294 kts | 121° |
| 2026-04-26 23:40 | -23.24091 | -46.49246 | 6025 ft | 294 kts | 121° |
| 2026-04-26 23:40 | -23.25170 | -46.47345 | 6025 ft | 296 kts | 121° |
| 2026-04-26 23:41 | -23.26234 | -46.45435 | 6027 ft | 294 kts | 116° |
| 2026-04-26 23:41 | -23.26854 | -46.43367 | 6030 ft | 292 kts | 97° |
| 2026-04-26 23:41 | -23.26931 | -46.41163 | 6030 ft | 293 kts | 88° |
| 2026-04-26 23:41 | -23.26942 | -46.38948 | 6034 ft | 292 kts | 89° |
| 2026-04-26 23:42 | -23.26966 | -46.36744 | 6028 ft | 293 kts | 89° |
| 2026-04-26 23:42 | -23.27029 | -46.32328 | 6021 ft | 292 kts | 90° |